createdAt,value
2022-11-02T00:01:22.415Z,98577.28
2022-11-02T00:03:49.370Z,98572.69
2022-11-02T00:06:16.242Z,98567.91
2022-11-02T00:08:43.124Z,98581.94
2022-11-02T00:11:09.982Z,98575.09
2022-11-02T00:13:36.950Z,98575.66
2022-11-02T00:16:10.431Z,98577.69
2022-11-02T00:18:37.444Z,98578.84
2022-11-02T00:21:04.881Z,98577.53
2022-11-02T00:23:32.138Z,98571.62
2022-11-02T00:26:02.207Z,98571.75
2022-11-02T00:28:30.026Z,98564.25
2022-11-02T00:30:56.909Z,98566.50
2022-11-02T00:33:23.856Z,98575.34
2022-11-02T00:35:50.686Z,98572.84
2022-11-02T00:38:17.512Z,98580.66
2022-11-02T00:40:44.362Z,98578.28
2022-11-02T00:43:11.715Z,98584.53
2022-11-02T00:45:38.793Z,98584.78
2022-11-02T00:48:06.338Z,98582.72
2022-11-02T00:50:33.550Z,98578.44
2022-11-02T00:53:00.390Z,98565.97
2022-11-02T00:55:27.265Z,98562.53
2022-11-02T00:57:54.297Z,98553.28
2022-11-02T01:00:21.280Z,98558.22
2022-11-02T01:02:48.286Z,98553.37
2022-11-02T01:05:15.849Z,98558.19
2022-11-02T01:07:42.703Z,98570.06
2022-11-02T01:10:10.782Z,98566.50
2022-11-02T01:12:39.412Z,98569.44
2022-11-02T01:15:08.257Z,98563.62
2022-11-02T01:17:35.470Z,98567.50
2022-11-02T01:20:02.781Z,98581.00
2022-11-02T01:22:29.646Z,98567.63
2022-11-02T01:24:56.532Z,98562.00
2022-11-02T01:27:23.449Z,98559.13
2022-11-02T01:29:50.332Z,98548.25
2022-11-02T01:32:17.138Z,98568.28
2022-11-02T01:34:44.003Z,98553.69
2022-11-02T01:37:10.971Z,98563.34
2022-11-02T01:39:37.826Z,98567.50
2022-11-02T01:42:04.949Z,98563.88
2022-11-02T01:44:34.144Z,98565.88
2022-11-02T01:47:06.512Z,98560.22
2022-11-02T01:49:37.235Z,98573.19
2022-11-02T01:52:10.087Z,98583.06
2022-11-02T01:54:44.243Z,98571.78
2022-11-02T01:57:14.249Z,98572.91
2022-11-02T01:59:56.358Z,98573.66
2022-11-02T02:02:25.306Z,98571.81
2022-11-02T02:04:56.454Z,98575.03
2022-11-02T02:07:24.551Z,98579.06
2022-11-02T02:09:52.403Z,98577.25
2022-11-02T02:12:20.160Z,98571.97
2022-11-02T02:14:47.536Z,98571.50
2022-11-02T02:17:29.552Z,98578.72
2022-11-02T02:20:08.682Z,98573.00
2022-11-02T02:22:38.568Z,98572.38
2022-11-02T02:25:34.443Z,98578.25
2022-11-02T02:28:13.513Z,98577.88
2022-11-02T02:30:44.893Z,98587.44
2022-11-02T02:33:15.039Z,98582.72
2022-11-02T02:35:55.634Z,98586.84
2022-11-02T02:38:41.110Z,98579.75
2022-11-02T02:41:15.182Z,98585.69
2022-11-02T02:43:51.120Z,98583.94
2022-11-02T02:46:46.657Z,98581.59
2022-11-02T02:49:20.636Z,98582.63
2022-11-02T02:51:47.631Z,98576.94
2022-11-02T02:54:41.428Z,98575.25
2022-11-02T02:57:11.492Z,98574.69
2022-11-02T02:59:42.158Z,98579.12
2022-11-02T03:02:26.254Z,98585.91
2022-11-02T03:04:53.220Z,98580.50
2022-11-02T03:07:33.964Z,98588.84
2022-11-02T03:10:17.341Z,98587.78
2022-11-02T03:13:07.750Z,98596.09
2022-11-02T03:15:38.357Z,98599.53
2022-11-02T03:18:26.698Z,98602.62
2022-11-02T03:20:59.552Z,98605.84
2022-11-02T03:23:29.126Z,98609.59
2022-11-02T03:25:55.920Z,98609.53
2022-11-02T03:28:48.422Z,98604.53
2022-11-02T03:31:34.785Z,98609.34
2022-11-02T03:34:32.529Z,98617.25
2022-11-02T03:39:44.701Z,98613.69
2022-11-02T03:42:14.377Z,98615.34
2022-11-02T03:44:41.721Z,98617.72
2022-11-02T03:47:11.864Z,98619.25
2022-11-02T03:49:40.683Z,98621.53
2022-11-02T03:52:10.819Z,98619.53
2022-11-02T03:54:59.057Z,98625.62
2022-11-02T03:57:39.641Z,98628.22
2022-11-02T04:00:09.042Z,98626.84
2022-11-02T04:02:38.045Z,98626.69
2022-11-02T04:05:05.397Z,98632.13
2022-11-02T04:07:58.357Z,98629.56
2022-11-02T04:10:26.444Z,98629.28
2022-11-02T04:13:11.877Z,98621.75
2022-11-02T04:15:38.809Z,98635.28
2022-11-02T04:18:24.124Z,98628.00
2022-11-02T04:20:51.626Z,98620.16
2022-11-02T04:23:45.117Z,98622.59
2022-11-02T04:26:11.940Z,98625.00
2022-11-02T04:28:38.750Z,98631.31
2022-11-02T04:31:05.648Z,98623.22
2022-11-02T04:33:35.392Z,98622.59
2022-11-02T04:36:04.468Z,98621.94
2022-11-02T04:38:40.602Z,98630.81
2022-11-02T04:41:36.492Z,98635.69
2022-11-02T04:44:04.294Z,98641.00
2022-11-02T04:46:34.031Z,98637.34
2022-11-02T04:49:00.950Z,98639.94
2022-11-02T04:51:29.256Z,98633.59
2022-11-02T04:53:57.626Z,98626.84
2022-11-02T04:56:26.185Z,98638.31
2022-11-02T04:58:55.249Z,98633.88
2022-11-02T05:01:23.668Z,98638.56
2022-11-02T05:03:51.442Z,98641.16
2022-11-02T05:06:19.733Z,98642.47
2022-11-02T05:08:46.959Z,98648.78
2022-11-02T05:11:14.092Z,98649.94
2022-11-02T05:13:41.814Z,98644.75
2022-11-02T05:16:14.876Z,98653.88
2022-11-02T05:18:42.292Z,98653.28
2022-11-02T05:21:10.281Z,98646.03
2022-11-02T05:23:37.264Z,98648.31
2022-11-02T05:26:06.802Z,98644.53
2022-11-02T05:28:34.256Z,98642.88
2022-11-02T05:31:02.174Z,98646.19
2022-11-02T05:33:30.797Z,98654.31
2022-11-02T05:35:59.014Z,98653.63
2022-11-02T05:38:26.566Z,98657.81
2022-11-02T05:40:58.152Z,98663.22
2022-11-02T05:43:25.643Z,98660.91
2022-11-02T05:45:57.456Z,98663.69
2022-11-02T05:48:25.126Z,98667.56
2022-11-02T05:51:02.611Z,98661.84
2022-11-02T05:53:34.227Z,98677.75
2022-11-02T05:56:02.408Z,98679.28
2022-11-02T05:58:29.577Z,98686.84
2022-11-02T06:01:00.186Z,98689.84
2022-11-02T06:03:27.043Z,98693.81
2022-11-02T06:06:01.212Z,98690.09
2022-11-02T06:08:28.221Z,98688.41
2022-11-02T06:10:55.119Z,98696.72
2022-11-02T06:13:22.090Z,98698.28
2022-11-02T06:15:49.005Z,98698.66
2022-11-02T06:18:15.868Z,98703.72
2022-11-02T06:20:42.928Z,98697.28
2022-11-02T06:23:09.790Z,98703.19
2022-11-02T06:25:36.668Z,98704.22
2022-11-02T06:28:03.547Z,98699.38
2022-11-02T06:30:30.381Z,98701.06
2022-11-02T06:32:58.668Z,98702.06
2022-11-02T06:35:28.330Z,98704.19
2022-11-02T06:37:55.176Z,98702.09
2022-11-02T06:40:25.633Z,98706.31
2022-11-02T06:43:15.286Z,98708.78
2022-11-02T06:45:43.220Z,98711.63
2022-11-02T06:48:10.088Z,98703.66
2022-11-02T06:50:36.963Z,98708.34
2022-11-02T06:53:04.116Z,98711.16
2022-11-02T06:55:31.255Z,98714.84
2022-11-02T06:57:58.133Z,98722.81
2022-11-02T07:00:25.618Z,98716.28
2022-11-02T07:03:10.127Z,98724.75
2022-11-02T07:05:39.019Z,98722.22
2022-11-02T07:08:05.940Z,98721.81
2022-11-02T07:10:32.918Z,98731.78
2022-11-02T07:13:00.370Z,98734.38
2022-11-02T07:15:28.985Z,98737.25
2022-11-02T07:17:56.669Z,98736.13
2022-11-02T07:20:24.003Z,98737.59
2022-11-02T07:22:59.767Z,98754.22
2022-11-02T07:25:33.724Z,98754.31
2022-11-02T07:28:01.586Z,98753.88
2022-11-02T07:30:34.807Z,98753.50
2022-11-02T07:33:01.879Z,98758.91
2022-11-02T07:35:28.991Z,98748.09
2022-11-02T07:38:00.868Z,98748.12
2022-11-02T07:40:29.188Z,98746.34
2022-11-02T07:42:57.252Z,98737.72
2022-11-02T07:45:24.618Z,98737.16
2022-11-02T07:47:51.766Z,98752.00
2022-11-02T07:50:21.333Z,98745.66
2022-11-02T07:52:52.848Z,98746.34
2022-11-02T07:55:21.639Z,98749.34
2022-11-02T07:57:55.723Z,98754.97
2022-11-02T08:00:23.257Z,98753.28
2022-11-02T08:02:54.724Z,98749.59
2022-11-02T08:05:21.639Z,98759.25
2022-11-02T08:07:49.152Z,98757.25
2022-11-02T08:10:16.072Z,98750.34
2022-11-02T08:12:43.153Z,98765.00
2022-11-02T08:15:10.569Z,98757.81
2022-11-02T08:17:37.406Z,98750.28
2022-11-02T08:20:04.696Z,98759.63
2022-11-02T08:22:31.540Z,98753.88
2022-11-02T08:24:58.374Z,98751.13
2022-11-02T08:27:32.971Z,98746.41
2022-11-02T08:30:00.098Z,98740.31
2022-11-02T08:32:26.965Z,98755.81
2022-11-02T08:34:53.846Z,98758.22
2022-11-02T08:37:20.706Z,98769.38
2022-11-02T08:39:47.955Z,98770.78
2022-11-02T08:42:14.782Z,98763.47
2022-11-02T08:44:42.801Z,98763.03
2022-11-02T08:47:09.968Z,98764.56
2022-11-02T08:49:36.910Z,98758.37
2022-11-02T08:52:03.844Z,98755.81
2022-11-02T08:54:30.712Z,98746.13
2022-11-02T08:56:57.578Z,98756.59
2022-11-02T08:59:24.470Z,98753.28
2022-11-02T09:01:51.445Z,98747.06
2022-11-02T09:04:18.786Z,98755.03
2022-11-02T09:06:45.617Z,98749.59
2022-11-02T09:09:12.468Z,98754.56
2022-11-02T09:11:39.299Z,98752.38
2022-11-02T09:14:07.382Z,98748.47
2022-11-02T09:16:40.196Z,98757.94
2022-11-02T09:19:08.262Z,98757.06
2022-11-02T09:21:35.181Z,98763.22
2022-11-02T09:24:02.052Z,98758.97
2022-11-02T09:26:28.986Z,98752.34
2022-11-02T09:28:55.852Z,98748.53
2022-11-02T09:31:22.710Z,98752.41
2022-11-02T09:33:49.577Z,98755.41
2022-11-02T09:36:16.468Z,98748.91
2022-11-02T09:38:43.323Z,98754.78
2022-11-02T09:41:20.413Z,98749.81
2022-11-02T09:44:06.032Z,98745.84
2022-11-02T09:46:41.332Z,98744.25
2022-11-02T09:49:19.584Z,98745.59
2022-11-02T09:51:51.628Z,98751.78
2022-11-02T09:54:46.168Z,98749.19
2022-11-02T09:57:21.196Z,98746.22
2022-11-02T09:59:48.075Z,98745.81
2022-11-02T10:02:57.038Z,98740.44
2022-11-02T10:05:38.401Z,98746.78
2022-11-02T10:08:23.668Z,98748.25
2022-11-02T10:10:57.318Z,98749.84
2022-11-02T10:13:42.543Z,98748.63
2022-11-02T10:16:22.044Z,98746.88
2022-11-02T10:18:50.616Z,98744.94
2022-11-02T10:21:26.239Z,98746.66
2022-11-02T10:23:55.643Z,98741.66
2022-11-02T10:26:23.737Z,98747.56
2022-11-02T10:29:12.528Z,98742.72
2022-11-02T10:31:39.391Z,98733.72
2022-11-02T10:34:14.654Z,98738.84
2022-11-02T10:37:03.948Z,98740.66
2022-11-02T10:39:54.357Z,98743.84
2022-11-02T10:42:33.135Z,98735.31
2022-11-02T10:45:05.913Z,98739.84
2022-11-02T10:48:02.139Z,98741.44
2022-11-02T10:50:46.732Z,98738.72
2022-11-02T10:56:28.197Z,98733.16
2022-11-02T10:58:59.554Z,98732.09
2022-11-02T11:01:27.522Z,98732.59
2022-11-02T11:03:55.977Z,98724.88
2022-11-02T11:06:36.536Z,98727.59
2022-11-02T11:09:16.777Z,98723.56
2022-11-02T11:11:55.560Z,98732.25
2022-11-02T11:20:09.442Z,98730.81
2022-11-02T11:22:38.187Z,98729.22
2022-11-02T11:25:11.153Z,98719.66
2022-11-02T11:27:48.073Z,98722.59
2022-11-02T11:33:25.200Z,98732.59
2022-11-02T11:35:53.258Z,98720.84
2022-11-02T11:38:23.055Z,98720.44
2022-11-02T11:40:55.184Z,98722.28
2022-11-02T11:43:25.258Z,98718.91
2022-11-02T11:46:05.857Z,98721.06
2022-11-02T11:48:39.468Z,98715.28
2022-11-02T11:51:25.199Z,98719.06
2022-11-02T11:54:18.734Z,98717.19
2022-11-02T11:56:46.621Z,98709.69
2022-11-02T11:59:27.341Z,98715.03
2022-11-02T12:01:59.686Z,98707.22
2022-11-02T12:04:36.368Z,98711.19
2022-11-02T12:07:22.095Z,98715.78
2022-11-02T12:10:15.269Z,98709.81
2022-11-02T12:13:14.720Z,98704.41
2022-11-02T12:16:07.708Z,98703.25
2022-11-02T12:18:53.529Z,98704.31
2022-11-02T12:22:02.441Z,98696.16
2022-11-02T12:24:38.388Z,98690.34
2022-11-02T12:27:41.673Z,98688.56
2022-11-02T12:30:14.740Z,98683.00
2022-11-02T12:32:50.184Z,98696.16
2022-11-02T12:35:38.231Z,98681.50
2022-11-02T12:38:27.307Z,98684.72
2022-11-02T12:41:13.273Z,98676.09
2022-11-02T12:43:45.975Z,98677.56
2022-11-02T12:46:18.731Z,98679.28
2022-11-02T12:49:04.117Z,98681.78
2022-11-02T12:51:35.428Z,98684.66
2022-11-02T12:54:11.208Z,98678.78
2022-11-02T12:56:50.075Z,98676.47
2022-11-02T12:59:44.049Z,98677.63
2022-11-02T13:02:15.422Z,98673.44
2022-11-02T13:04:46.635Z,98668.66
2022-11-02T13:07:15.915Z,98674.03
2022-11-02T13:09:53.500Z,98680.09
2022-11-02T13:12:22.860Z,98682.28
2022-11-02T13:14:51.877Z,98678.56
2022-11-02T13:17:52.459Z,98673.06
2022-11-02T13:20:41.025Z,98676.72
2022-11-02T13:23:36.713Z,98672.88
2022-11-02T13:26:08.105Z,98671.53
2022-11-02T13:28:48.637Z,98668.25
2022-11-02T13:31:39.427Z,98676.84
2022-11-02T13:34:14.760Z,98674.91
2022-11-02T13:36:42.627Z,98659.81
2022-11-02T13:39:32.108Z,98681.19
2022-11-02T13:42:29.230Z,98674.72
2022-11-02T13:45:16.350Z,98675.66
2022-11-02T13:47:49.182Z,98668.97
2022-11-02T13:50:18.931Z,98683.19
2022-11-02T13:52:51.000Z,98682.22
2022-11-02T13:55:23.686Z,98687.59
2022-11-02T13:57:54.052Z,98670.38
2022-11-02T14:00:23.669Z,98676.91
2022-11-02T14:02:58.181Z,98677.19
2022-11-02T14:05:31.567Z,98674.06
2022-11-02T14:08:06.461Z,98676.06
2022-11-02T14:10:41.340Z,98683.34
2022-11-02T14:13:13.900Z,98672.06
2022-11-02T14:15:42.698Z,98681.38
2022-11-02T14:18:09.653Z,98673.81
2022-11-02T14:20:39.289Z,98675.56
2022-11-02T14:23:12.241Z,98678.97
2022-11-02T14:25:58.667Z,98683.00
2022-11-02T14:28:34.268Z,98685.03
2022-11-02T14:31:04.310Z,98687.34
2022-11-02T14:33:40.389Z,98690.28
2022-11-02T14:36:17.826Z,98688.22
2022-11-02T14:39:14.864Z,98692.75
2022-11-02T14:41:46.757Z,98694.47
2022-11-02T14:44:32.548Z,98688.84
2022-11-02T14:47:09.240Z,98686.03
2022-11-02T14:49:40.794Z,98692.97
2022-11-02T14:52:13.720Z,98687.94
2022-11-02T14:55:04.684Z,98692.09
2022-11-02T14:57:59.354Z,98690.81
2022-11-02T15:00:35.417Z,98693.34
2022-11-02T15:03:04.662Z,98691.56
2022-11-02T15:05:35.902Z,98694.72
2022-11-02T15:08:21.398Z,98695.03
2022-11-02T15:10:48.347Z,98697.53
2022-11-02T15:13:20.955Z,98698.75
2022-11-02T15:15:50.823Z,98707.06
2022-11-02T15:18:29.951Z,98700.00
2022-11-02T15:21:12.493Z,98698.63
2022-11-02T15:23:57.976Z,98702.50
2022-11-02T15:26:41.809Z,98704.75
2022-11-02T15:29:41.660Z,98697.50
2022-11-02T15:32:17.060Z,98705.41
2022-11-02T15:34:49.826Z,98710.56
2022-11-02T15:37:23.195Z,98708.91
2022-11-02T15:39:55.119Z,98713.19
2022-11-02T15:42:49.864Z,98713.63
2022-11-02T15:45:55.234Z,98725.44
2022-11-02T15:48:50.191Z,98718.16
2022-11-02T15:51:30.712Z,98725.22
2022-11-02T15:54:14.274Z,98721.28
2022-11-02T15:57:02.903Z,98718.22
2022-11-02T15:59:48.203Z,98723.75
2022-11-02T16:02:19.967Z,98715.53
2022-11-02T16:04:48.416Z,98725.59
2022-11-02T16:07:17.595Z,98721.31
2022-11-02T16:09:46.788Z,98727.72
2022-11-02T16:12:19.319Z,98735.34
2022-11-02T16:14:52.345Z,98729.97
2022-11-02T16:17:23.616Z,98731.59
2022-11-02T16:19:51.050Z,98740.88
2022-11-02T16:22:24.925Z,98740.84
2022-11-02T16:24:53.695Z,98742.06
2022-11-02T16:27:22.264Z,98737.25
2022-11-02T16:29:50.067Z,98748.63
2022-11-02T16:32:17.079Z,98751.37
2022-11-02T16:34:44.330Z,98754.34
2022-11-02T16:37:14.290Z,98760.56
2022-11-02T16:39:45.489Z,98759.41
2022-11-02T16:42:22.844Z,98754.16
2022-11-02T16:44:55.803Z,98761.16
2022-11-02T16:47:33.054Z,98765.84
2022-11-02T16:50:00.036Z,98768.53
2022-11-02T16:52:37.247Z,98767.72
2022-11-02T16:55:30.275Z,98764.53
2022-11-02T16:58:01.243Z,98767.31
2022-11-02T17:00:28.229Z,98768.06
2022-11-02T17:02:55.856Z,98760.47
2022-11-02T17:05:26.442Z,98765.66
2022-11-02T17:07:58.957Z,98764.81
2022-11-02T17:10:27.738Z,98764.63
2022-11-02T17:12:55.630Z,98772.16
2022-11-02T17:15:24.643Z,98771.63
2022-11-02T17:18:16.655Z,98766.25
2022-11-02T17:20:43.575Z,98777.94
2022-11-02T17:23:34.367Z,98779.22
2022-11-02T17:26:22.585Z,98781.69
2022-11-02T17:28:52.969Z,98785.03
2022-11-02T17:31:38.232Z,98786.56
2022-11-02T17:34:09.899Z,98785.19
2022-11-02T17:36:44.867Z,98791.63
2022-11-02T17:39:14.516Z,98785.62
2022-11-02T17:42:07.603Z,98797.41
2022-11-02T17:44:34.441Z,98795.84
2022-11-02T17:47:01.297Z,98797.03
2022-11-02T17:49:28.104Z,98799.75
2022-11-02T17:51:54.988Z,98802.31
2022-11-02T17:54:21.885Z,98802.03
2022-11-02T17:56:48.752Z,98797.84
2022-11-02T17:59:15.564Z,98792.69
2022-11-02T18:01:42.600Z,98790.53
2022-11-02T18:04:09.573Z,98792.66
2022-11-02T18:06:36.427Z,98795.19
2022-11-02T18:09:13.989Z,98784.72
2022-11-02T18:11:41.311Z,98786.75
2022-11-02T18:14:16.983Z,98786.97
2022-11-02T18:16:44.208Z,98779.25
2022-11-02T18:19:11.065Z,98780.03
2022-11-02T18:21:38.180Z,98777.53
2022-11-02T18:24:05.289Z,98783.34
2022-11-02T18:26:32.222Z,98786.28
2022-11-02T18:28:59.098Z,98779.50
2022-11-02T18:31:25.933Z,98775.56
2022-11-02T18:33:53.128Z,98781.69
2022-11-02T18:36:20.141Z,98776.13
2022-11-02T18:38:46.996Z,98774.94
2022-11-02T18:41:35.023Z,98773.75
2022-11-02T18:44:07.819Z,98771.91
2022-11-02T18:46:38.757Z,98773.84
2022-11-02T18:49:05.583Z,98775.19
2022-11-02T18:51:32.543Z,98765.22
2022-11-02T18:54:04.768Z,98772.28
2022-11-02T18:56:31.701Z,98768.03
2022-11-02T18:58:58.576Z,98769.97
2022-11-02T19:01:26.531Z,98774.66
2022-11-02T19:03:55.403Z,98771.44
2022-11-02T19:06:41.668Z,98781.53
2022-11-02T19:09:20.472Z,98775.59
2022-11-02T19:11:54.830Z,98771.69
2022-11-02T19:14:22.620Z,98773.13
2022-11-02T19:16:49.707Z,98783.22
2022-11-02T19:19:16.555Z,98778.69
2022-11-02T19:21:43.568Z,98782.44
2022-11-02T19:24:10.475Z,98778.25
2022-11-02T19:26:37.788Z,98780.59
2022-11-02T19:29:06.713Z,98783.84
2022-11-02T19:31:34.965Z,98774.41
2022-11-02T19:34:02.152Z,98776.56
2022-11-02T19:36:28.990Z,98782.66
2022-11-02T19:38:55.902Z,98783.25
2022-11-02T19:41:24.048Z,98780.81
2022-11-02T19:43:51.267Z,98785.66
2022-11-02T19:46:20.632Z,98785.19
2022-11-02T19:48:47.927Z,98783.38
2022-11-02T19:51:25.982Z,98794.13
2022-11-02T19:53:58.597Z,98794.47
2022-11-02T19:56:27.789Z,98794.03
2022-11-02T19:58:55.196Z,98799.56
2022-11-02T20:01:30.594Z,98799.56
2022-11-02T20:03:58.188Z,98793.34
2022-11-02T20:06:32.555Z,98794.03
2022-11-02T20:08:59.805Z,98801.31
2022-11-02T20:11:27.657Z,98798.75
2022-11-02T20:13:56.283Z,98804.25
2022-11-02T20:16:23.121Z,98800.19
2022-11-02T20:18:51.063Z,98800.47
2022-11-02T20:21:20.869Z,98803.38
2022-11-02T20:23:48.628Z,98804.16
2022-11-02T20:26:20.377Z,98800.16
2022-11-02T20:28:48.344Z,98791.41
2022-11-02T20:31:19.816Z,98789.75
2022-11-02T20:33:47.218Z,98794.28
2022-11-02T20:36:14.820Z,98802.91
2022-11-02T20:38:41.973Z,98803.72
2022-11-02T20:41:14.354Z,98798.41
2022-11-02T20:43:43.368Z,98802.59
2022-11-02T20:49:19.812Z,98794.31
2022-11-02T20:51:52.080Z,98800.62
2022-11-02T20:54:19.999Z,98815.16
2022-11-02T20:56:47.600Z,98807.53
2022-11-02T20:59:14.937Z,98819.94
2022-11-02T21:01:42.058Z,98819.81
2022-11-02T21:04:09.094Z,98823.38
2022-11-02T21:06:35.971Z,98833.31
2022-11-02T21:09:09.088Z,98837.56
2022-11-02T21:11:57.444Z,98840.88
2022-11-02T21:14:24.695Z,98825.69
2022-11-02T21:16:51.593Z,98827.31
2022-11-02T21:19:18.473Z,98826.94
2022-11-02T21:21:45.369Z,98825.31
2022-11-02T21:24:12.486Z,98831.81
2022-11-02T21:26:39.384Z,98829.91
2022-11-02T21:29:06.317Z,98829.22
2022-11-02T21:31:33.197Z,98817.06
2022-11-02T21:34:00.147Z,98827.06
2022-11-02T21:36:27.001Z,98823.19
2022-11-02T21:38:54.022Z,98828.03
2022-11-02T21:41:22.545Z,98837.22
2022-11-02T21:43:52.114Z,98842.34
2022-11-02T21:46:22.586Z,98837.56
2022-11-02T21:48:49.820Z,98836.19
2022-11-02T21:51:18.963Z,98845.19
2022-11-02T21:53:46.849Z,98837.22
2022-11-02T21:56:17.828Z,98834.94
2022-11-02T21:58:46.473Z,98835.00
2022-11-02T22:01:37.911Z,98838.62
2022-11-02T22:04:05.410Z,98833.16
2022-11-02T22:06:32.848Z,98829.59
2022-11-02T22:09:00.900Z,98838.09
2022-11-02T22:11:28.162Z,98834.94
2022-11-02T22:13:56.952Z,98834.16
2022-11-02T22:16:35.206Z,98833.00
2022-11-02T22:19:03.879Z,98829.47
2022-11-02T22:21:34.144Z,98832.06
2022-11-02T22:24:01.213Z,98838.22
2022-11-02T22:26:29.956Z,98836.88
2022-11-02T22:28:57.955Z,98826.16
2022-11-02T22:31:30.501Z,98828.25
2022-11-02T22:33:59.498Z,98826.31
2022-11-02T22:36:31.000Z,98833.19
2022-11-02T22:38:59.103Z,98842.69
2022-11-02T22:41:31.291Z,98831.50
2022-11-02T22:44:00.260Z,98831.72
2022-11-02T22:46:28.243Z,98829.13
2022-11-02T22:48:56.608Z,98828.31
2022-11-02T22:51:25.453Z,98834.28
2022-11-02T22:53:52.487Z,98840.06
2022-11-02T22:56:21.207Z,98833.31
2022-11-02T22:58:48.773Z,98824.56
2022-11-02T23:01:21.030Z,98826.25
2022-11-02T23:03:48.619Z,98837.38
2022-11-02T23:06:16.937Z,98843.28
2022-11-02T23:08:45.898Z,98831.34
2022-11-02T23:11:22.593Z,98831.72
2022-11-02T23:14:01.447Z,98828.53
2022-11-02T23:16:39.838Z,98822.59
2022-11-02T23:19:25.197Z,98825.34
2022-11-02T23:22:16.150Z,98827.75
2022-11-02T23:25:12.065Z,98815.06
2022-11-02T23:28:14.569Z,98821.84
2022-11-02T23:31:00.588Z,98831.44
2022-11-02T23:33:32.103Z,98826.75
2022-11-02T23:36:12.667Z,98829.50
2022-11-02T23:38:59.393Z,98826.81
2022-11-02T23:41:26.629Z,98825.50
2022-11-02T23:44:12.007Z,98818.53
2022-11-02T23:46:40.059Z,98821.81
2022-11-02T23:49:07.202Z,98822.00
2022-11-02T23:51:52.452Z,98823.19
2022-11-02T23:54:37.912Z,98820.50
2022-11-02T23:57:04.750Z,98821.66
2022-11-02T23:59:31.641Z,98824.59
